East Lake, North Carolina
Current Conditions -  °F | °C
As of 6:56 AM on Monday 26 Jan 2015 (Local Time) from K2DP Reporting Station
Broken Clouds Broken Clouds  
Wind Chill: 42°   Ceiling: 15000
Heat Index: 42°   Visibility: 10mi
Dew Point: 40°   Wind: 2mph
Humidity: 94%   Direction: 360°N
Pressure: 29.71"   Gusts: NA
Location:  35.804°N, 75.9197°W
Report Text: K2DP 261156Z AUTO 36002KT 10SM SCT050 BKN150 06/05 A2971 RMK AO2 SLPNO T00550046 10067 20013 57018
Loading
Personal Weather Stations






























Interactive Weather Map New forecast layout! Learn more

10-Day Weather Forecast

Advertisements
Track Severe Weather on mobile